sensor_id;sensor_type;location;lat;lon;timestamp;P1;durP1;ratioP1;P2;durP2;ratioP2
49051;SDS011;34866;48.670;18.260;2023-02-20T00:01:44;3.30;;;2.20;;
49051;SDS011;34866;48.670;18.260;2023-02-20T00:04:18;8.80;;;2.95;;
49051;SDS011;34866;48.670;18.260;2023-02-20T00:06:44;5.38;;;2.58;;
49051;SDS011;34866;48.670;18.260;2023-02-20T00:09:10;5.95;;;2.88;;
49051;SDS011;34866;48.670;18.260;2023-02-20T00:11:36;13.00;;;2.15;;
49051;SDS011;34866;48.670;18.260;2023-02-20T00:14:02;4.55;;;2.65;;
49051;SDS011;34866;48.670;18.260;2023-02-20T00:16:27;4.65;;;2.08;;
49051;SDS011;34866;48.670;18.260;2023-02-20T00:18:53;7.72;;;3.40;;
49051;SDS011;34866;48.670;18.260;2023-02-20T00:21:19;3.90;;;1.73;;
49051;SDS011;34866;48.670;18.260;2023-02-20T00:23:44;4.43;;;2.10;;
49051;SDS011;34866;48.670;18.260;2023-02-20T00:26:10;8.48;;;3.15;;
49051;SDS011;34866;48.670;18.260;2023-02-20T00:28:38;6.20;;;2.58;;
49051;SDS011;34866;48.670;18.260;2023-02-20T00:31:08;5.32;;;1.92;;
49051;SDS011;34866;48.670;18.260;2023-02-20T00:33:38;6.50;;;2.00;;
49051;SDS011;34866;48.670;18.260;2023-02-20T00:36:03;4.70;;;1.98;;
49051;SDS011;34866;48.670;18.260;2023-02-20T00:38:37;4.07;;;1.85;;
49051;SDS011;34866;48.670;18.260;2023-02-20T00:41:03;7.10;;;2.45;;
49051;SDS011;34866;48.670;18.260;2023-02-20T00:43:28;6.47;;;2.50;;
49051;SDS011;34866;48.670;18.260;2023-02-20T00:45:55;3.17;;;1.40;;
49051;SDS011;34866;48.670;18.260;2023-02-20T00:48:21;4.72;;;1.73;;
49051;SDS011;34866;48.670;18.260;2023-02-20T00:50:46;4.95;;;2.80;;
49051;SDS011;34866;48.670;18.260;2023-02-20T00:53:12;3.67;;;2.28;;
49051;SDS011;34866;48.670;18.260;2023-02-20T00:55:37;4.30;;;1.80;;
49051;SDS011;34866;48.670;18.260;2023-02-20T00:58:03;4.57;;;1.60;;
49051;SDS011;34866;48.670;18.260;2023-02-20T01:00:29;3.58;;;1.50;;
49051;SDS011;34866;48.670;18.260;2023-02-20T01:02:54;4.55;;;2.15;;
49051;SDS011;34866;48.670;18.260;2023-02-20T01:05:20;9.55;;;2.60;;
49051;SDS011;34866;48.670;18.260;2023-02-20T01:08:00;5.80;;;2.85;;
49051;SDS011;34866;48.670;18.260;2023-02-20T01:10:26;11.55;;;3.30;;
49051;SDS011;34866;48.670;18.260;2023-02-20T01:12:52;4.45;;;1.90;;
49051;SDS011;34866;48.670;18.260;2023-02-20T01:15:17;2.80;;;1.48;;
49051;SDS011;34866;48.670;18.260;2023-02-20T01:17:43;4.30;;;2.55;;
49051;SDS011;34866;48.670;18.260;2023-02-20T01:20:09;6.90;;;2.60;;
49051;SDS011;34866;48.670;18.260;2023-02-20T01:22:35;8.45;;;2.35;;
49051;SDS011;34866;48.670;18.260;2023-02-20T01:25:00;5.60;;;3.05;;
49051;SDS011;34866;48.670;18.260;2023-02-20T01:27:26;5.55;;;2.15;;
49051;SDS011;34866;48.670;18.260;2023-02-20T01:29:51;9.38;;;2.42;;
49051;SDS011;34866;48.670;18.260;2023-02-20T01:32:17;6.38;;;3.13;;
49051;SDS011;34866;48.670;18.260;2023-02-20T01:34:43;3.53;;;1.95;;
49051;SDS011;34866;48.670;18.260;2023-02-20T01:37:10;7.90;;;1.95;;
49051;SDS011;34866;48.670;18.260;2023-02-20T01:39:38;6.30;;;2.95;;
49051;SDS011;34866;48.670;18.260;2023-02-20T01:42:04;12.15;;;2.83;;
49051;SDS011;34866;48.670;18.260;2023-02-20T01:44:34;4.05;;;2.08;;
49051;SDS011;34866;48.670;18.260;2023-02-20T01:47:04;4.38;;;2.35;;
49051;SDS011;34866;48.670;18.260;2023-02-20T01:52:06;3.80;;;1.85;;
49051;SDS011;34866;48.670;18.260;2023-02-20T01:54:36;3.25;;;1.77;;
49051;SDS011;34866;48.670;18.260;2023-02-20T01:57:07;8.68;;;2.28;;
49051;SDS011;34866;48.670;18.260;2023-02-20T01:59:37;6.13;;;3.38;;
49051;SDS011;34866;48.670;18.260;2023-02-20T02:02:04;3.72;;;2.10;;
49051;SDS011;34866;48.670;18.260;2023-02-20T02:04:31;5.20;;;2.30;;
49051;SDS011;34866;48.670;18.260;2023-02-20T02:06:58;5.50;;;2.53;;
49051;SDS011;34866;48.670;18.260;2023-02-20T02:11:56;7.88;;;2.78;;
49051;SDS011;34866;48.670;18.260;2023-02-20T02:14:21;3.72;;;2.45;;
49051;SDS011;34866;48.670;18.260;2023-02-20T02:38:46;7.88;;;3.90;;
49051;SDS011;34866;48.670;18.260;2023-02-20T02:46:39;8.18;;;2.30;;
49051;SDS011;34866;48.670;18.260;2023-02-20T02:51:44;5.32;;;2.70;;
49051;SDS011;34866;48.670;18.260;2023-02-20T02:54:16;7.32;;;3.33;;
49051;SDS011;34866;48.670;18.260;2023-02-20T02:56:46;8.38;;;2.92;;
49051;SDS011;34866;48.670;18.260;2023-02-20T02:59:26;21.77;;;4.65;;
49051;SDS011;34866;48.670;18.260;2023-02-20T03:01:58;5.90;;;3.13;;
49051;SDS011;34866;48.670;18.260;2023-02-20T03:04:27;5.65;;;2.80;;
49051;SDS011;34866;48.670;18.260;2023-02-20T03:06:59;6.60;;;2.35;;
49051;SDS011;34866;48.670;18.260;2023-02-20T03:09:31;7.88;;;4.35;;
49051;SDS011;34866;48.670;18.260;2023-02-20T03:12:02;5.80;;;2.80;;
49051;SDS011;34866;48.670;18.260;2023-02-20T03:14:32;7.03;;;3.47;;
49051;SDS011;34866;48.670;18.260;2023-02-20T03:19:54;5.03;;;2.67;;
49051;SDS011;34866;48.670;18.260;2023-02-20T03:22:40;11.13;;;3.05;;
49051;SDS011;34866;48.670;18.260;2023-02-20T03:27:47;6.32;;;2.65;;
49051;SDS011;34866;48.670;18.260;2023-02-20T03:30:33;8.80;;;3.40;;
49051;SDS011;34866;48.670;18.260;2023-02-20T03:36:31;9.13;;;3.25;;
49051;SDS011;34866;48.670;18.260;2023-02-20T03:39:17;9.63;;;3.20;;
49051;SDS011;34866;48.670;18.260;2023-02-20T03:42:05;6.00;;;2.42;;
49051;SDS011;34866;48.670;18.260;2023-02-20T03:44:52;8.10;;;2.85;;
49051;SDS011;34866;48.670;18.260;2023-02-20T03:47:19;5.72;;;2.40;;
49051;SDS011;34866;48.670;18.260;2023-02-20T03:49:50;7.88;;;3.40;;
49051;SDS011;34866;48.670;18.260;2023-02-20T03:52:19;6.40;;;2.85;;
49051;SDS011;34866;48.670;18.260;2023-02-20T03:54:45;6.40;;;2.80;;
49051;SDS011;34866;48.670;18.260;2023-02-20T03:57:12;5.82;;;2.95;;
49051;SDS011;34866;48.670;18.260;2023-02-20T03:59:59;7.93;;;3.30;;
49051;SDS011;34866;48.670;18.260;2023-02-20T04:02:33;14.57;;;3.92;;
49051;SDS011;34866;48.670;18.260;2023-02-20T04:05:07;10.35;;;4.20;;
49051;SDS011;34866;48.670;18.260;2023-02-20T04:07:40;16.60;;;5.88;;
49051;SDS011;34866;48.670;18.260;2023-02-20T04:10:17;14.82;;;8.48;;
49051;SDS011;34866;48.670;18.260;2023-02-20T04:12:49;18.52;;;8.40;;
49051;SDS011;34866;48.670;18.260;2023-02-20T04:15:17;17.45;;;9.93;;
49051;SDS011;34866;48.670;18.260;2023-02-20T04:17:45;20.63;;;8.85;;
49051;SDS011;34866;48.670;18.260;2023-02-20T04:20:14;17.08;;;6.95;;
49051;SDS011;34866;48.670;18.260;2023-02-20T04:22:41;13.40;;;8.05;;
49051;SDS011;34866;48.670;18.260;2023-02-20T04:28:04;16.23;;;6.60;;
49051;SDS011;34866;48.670;18.260;2023-02-20T04:30:30;14.43;;;7.85;;
49051;SDS011;34866;48.670;18.260;2023-02-20T04:32:56;13.32;;;6.45;;
49051;SDS011;34866;48.670;18.260;2023-02-20T04:35:21;20.80;;;7.18;;
49051;SDS011;34866;48.670;18.260;2023-02-20T04:37:47;11.30;;;5.13;;
49051;SDS011;34866;48.670;18.260;2023-02-20T04:40:15;8.65;;;4.78;;
49051;SDS011;34866;48.670;18.260;2023-02-20T04:42:44;12.80;;;4.53;;
49051;SDS011;34866;48.670;18.260;2023-02-20T04:45:10;15.95;;;5.38;;
49051;SDS011;34866;48.670;18.260;2023-02-20T04:47:35;9.00;;;4.32;;
49051;SDS011;34866;48.670;18.260;2023-02-20T04:50:01;14.05;;;4.07;;
49051;SDS011;34866;48.670;18.260;2023-02-20T04:52:27;7.63;;;3.38;;
49051;SDS011;34866;48.670;18.260;2023-02-20T04:54:53;4.82;;;2.72;;
49051;SDS011;34866;48.670;18.260;2023-02-20T04:57:18;6.93;;;4.38;;
49051;SDS011;34866;48.670;18.260;2023-02-20T04:59:44;7.68;;;3.65;;
49051;SDS011;34866;48.670;18.260;2023-02-20T05:02:10;19.73;;;3.75;;
49051;SDS011;34866;48.670;18.260;2023-02-20T05:04:35;12.65;;;5.97;;
49051;SDS011;34866;48.670;18.260;2023-02-20T05:07:01;16.75;;;4.68;;
49051;SDS011;34866;48.670;18.260;2023-02-20T05:09:27;15.70;;;4.00;;
49051;SDS011;34866;48.670;18.260;2023-02-20T05:11:53;12.05;;;5.47;;
49051;SDS011;34866;48.670;18.260;2023-02-20T05:14:19;7.80;;;3.97;;
49051;SDS011;34866;48.670;18.260;2023-02-20T05:16:45;6.32;;;3.30;;
49051;SDS011;34866;48.670;18.260;2023-02-20T05:19:11;6.05;;;3.08;;
49051;SDS011;34866;48.670;18.260;2023-02-20T05:21:40;7.47;;;4.15;;
49051;SDS011;34866;48.670;18.260;2023-02-20T05:24:25;8.73;;;3.90;;
49051;SDS011;34866;48.670;18.260;2023-02-20T05:26:52;10.55;;;4.22;;
49051;SDS011;34866;48.670;18.260;2023-02-20T05:29:18;10.88;;;5.30;;
49051;SDS011;34866;48.670;18.260;2023-02-20T05:31:44;9.10;;;4.82;;
49051;SDS011;34866;48.670;18.260;2023-02-20T05:34:09;13.95;;;5.15;;
49051;SDS011;34866;48.670;18.260;2023-02-20T05:36:35;9.60;;;5.95;;
49051;SDS011;34866;48.670;18.260;2023-02-20T05:39:01;8.57;;;4.72;;
49051;SDS011;34866;48.670;18.260;2023-02-20T05:41:27;13.98;;;5.00;;
49051;SDS011;34866;48.670;18.260;2023-02-20T05:43:53;7.80;;;4.70;;
49051;SDS011;34866;48.670;18.260;2023-02-20T05:46:21;9.23;;;5.00;;
49051;SDS011;34866;48.670;18.260;2023-02-20T05:48:48;14.93;;;5.47;;
49051;SDS011;34866;48.670;18.260;2023-02-20T05:53:50;24.42;;;9.50;;
49051;SDS011;34866;48.670;18.260;2023-02-20T05:56:16;21.10;;;7.80;;
49051;SDS011;34866;48.670;18.260;2023-02-20T05:58:42;14.07;;;8.30;;
49051;SDS011;34866;48.670;18.260;2023-02-20T06:01:19;22.20;;;8.70;;
49051;SDS011;34866;48.670;18.260;2023-02-20T06:03:49;15.00;;;8.20;;
49051;SDS011;34866;48.670;18.260;2023-02-20T06:06:15;9.55;;;5.90;;
49051;SDS011;34866;48.670;18.260;2023-02-20T06:08:40;8.38;;;4.30;;
49051;SDS011;34866;48.670;18.260;2023-02-20T06:11:08;12.18;;;5.47;;
49051;SDS011;34866;48.670;18.260;2023-02-20T06:13:35;7.65;;;4.28;;
49051;SDS011;34866;48.670;18.260;2023-02-20T06:16:01;9.25;;;3.78;;
49051;SDS011;34866;48.670;18.260;2023-02-20T06:18:26;7.72;;;4.78;;
49051;SDS011;34866;48.670;18.260;2023-02-20T06:20:52;11.18;;;4.78;;
49051;SDS011;34866;48.670;18.260;2023-02-20T06:23:18;7.78;;;4.10;;
49051;SDS011;34866;48.670;18.260;2023-02-20T06:25:43;8.35;;;4.03;;
49051;SDS011;34866;48.670;18.260;2023-02-20T06:28:09;11.07;;;5.30;;
49051;SDS011;34866;48.670;18.260;2023-02-20T06:30:34;9.85;;;4.78;;
49051;SDS011;34866;48.670;18.260;2023-02-20T06:33:00;6.90;;;4.43;;
49051;SDS011;34866;48.670;18.260;2023-02-20T06:35:26;6.28;;;3.90;;
49051;SDS011;34866;48.670;18.260;2023-02-20T06:37:51;10.40;;;4.35;;
49051;SDS011;34866;48.670;18.260;2023-02-20T06:40:17;9.15;;;4.28;;
49051;SDS011;34866;48.670;18.260;2023-02-20T06:42:42;8.88;;;4.50;;
49051;SDS011;34866;48.670;18.260;2023-02-20T06:45:08;7.50;;;3.65;;
49051;SDS011;34866;48.670;18.260;2023-02-20T06:47:35;16.85;;;5.55;;
49051;SDS011;34866;48.670;18.260;2023-02-20T06:50:01;9.77;;;4.57;;
49051;SDS011;34866;48.670;18.260;2023-02-20T06:52:27;9.82;;;3.92;;
49051;SDS011;34866;48.670;18.260;2023-02-20T06:54:53;12.27;;;3.45;;
49051;SDS011;34866;48.670;18.260;2023-02-20T06:57:19;7.88;;;4.78;;
49051;SDS011;34866;48.670;18.260;2023-02-20T06:59:45;11.88;;;4.43;;
49051;SDS011;34866;48.670;18.260;2023-02-20T07:02:12;9.73;;;4.38;;
49051;SDS011;34866;48.670;18.260;2023-02-20T07:04:38;15.63;;;3.95;;
49051;SDS011;34866;48.670;18.260;2023-02-20T07:07:04;11.55;;;4.70;;
49051;SDS011;34866;48.670;18.260;2023-02-20T07:09:30;7.22;;;4.03;;
49051;SDS011;34866;48.670;18.260;2023-02-20T07:11:56;10.70;;;4.50;;
49051;SDS011;34866;48.670;18.260;2023-02-20T07:14:22;13.63;;;5.18;;
49051;SDS011;34866;48.670;18.260;2023-02-20T07:16:48;15.02;;;4.00;;
49051;SDS011;34866;48.670;18.260;2023-02-20T07:19:14;7.97;;;4.03;;
49051;SDS011;34866;48.670;18.260;2023-02-20T07:21:39;9.07;;;4.65;;
49051;SDS011;34866;48.670;18.260;2023-02-20T07:24:05;6.40;;;3.22;;
49051;SDS011;34866;48.670;18.260;2023-02-20T07:26:31;11.38;;;4.18;;
49051;SDS011;34866;48.670;18.260;2023-02-20T07:28:57;6.53;;;4.22;;
49051;SDS011;34866;48.670;18.260;2023-02-20T07:31:24;7.28;;;3.78;;
49051;SDS011;34866;48.670;18.260;2023-02-20T07:33:50;7.28;;;3.78;;
49051;SDS011;34866;48.670;18.260;2023-02-20T07:36:16;11.52;;;5.50;;
49051;SDS011;34866;48.670;18.260;2023-02-20T07:38:42;5.82;;;3.45;;
49051;SDS011;34866;48.670;18.260;2023-02-20T07:41:16;7.50;;;4.57;;
49051;SDS011;34866;48.670;18.260;2023-02-20T07:43:42;8.25;;;3.67;;
49051;SDS011;34866;48.670;18.260;2023-02-20T07:46:07;13.35;;;3.97;;
49051;SDS011;34866;48.670;18.260;2023-02-20T07:48:33;7.45;;;4.22;;
49051;SDS011;34866;48.670;18.260;2023-02-20T07:51:00;12.48;;;3.97;;
49051;SDS011;34866;48.670;18.260;2023-02-20T07:53:26;7.57;;;4.18;;
49051;SDS011;34866;48.670;18.260;2023-02-20T07:55:52;7.10;;;3.55;;
49051;SDS011;34866;48.670;18.260;2023-02-20T07:58:17;7.75;;;3.35;;
49051;SDS011;34866;48.670;18.260;2023-02-20T08:00:43;8.13;;;4.45;;
49051;SDS011;34866;48.670;18.260;2023-02-20T08:03:09;6.85;;;3.03;;
49051;SDS011;34866;48.670;18.260;2023-02-20T08:05:34;4.97;;;2.33;;
49051;SDS011;34866;48.670;18.260;2023-02-20T08:08:00;6.32;;;3.13;;
49051;SDS011;34866;48.670;18.260;2023-02-20T08:10:26;5.93;;;3.13;;
49051;SDS011;34866;48.670;18.260;2023-02-20T08:12:52;6.53;;;3.90;;
49051;SDS011;34866;48.670;18.260;2023-02-20T08:15:19;9.15;;;3.90;;
49051;SDS011;34866;48.670;18.260;2023-02-20T08:17:46;8.23;;;4.13;;
49051;SDS011;34866;48.670;18.260;2023-02-20T08:20:13;7.70;;;3.95;;
49051;SDS011;34866;48.670;18.260;2023-02-20T08:22:39;6.07;;;4.18;;
49051;SDS011;34866;48.670;18.260;2023-02-20T08:25:05;7.72;;;3.97;;
49051;SDS011;34866;48.670;18.260;2023-02-20T08:27:31;10.40;;;4.82;;
49051;SDS011;34866;48.670;18.260;2023-02-20T08:29:57;8.55;;;3.90;;
49051;SDS011;34866;48.670;18.260;2023-02-20T08:32:23;8.90;;;5.22;;
49051;SDS011;34866;48.670;18.260;2023-02-20T08:34:49;11.93;;;3.97;;
49051;SDS011;34866;48.670;18.260;2023-02-20T08:37:14;9.25;;;4.75;;
49051;SDS011;34866;48.670;18.260;2023-02-20T08:39:40;7.15;;;4.88;;
49051;SDS011;34866;48.670;18.260;2023-02-20T08:42:09;19.02;;;5.22;;
49051;SDS011;34866;48.670;18.260;2023-02-20T08:44:39;7.25;;;4.15;;
49051;SDS011;34866;48.670;18.260;2023-02-20T08:47:05;6.40;;;3.20;;
49051;SDS011;34866;48.670;18.260;2023-02-20T08:49:30;6.82;;;3.45;;
49051;SDS011;34866;48.670;18.260;2023-02-20T08:51:56;8.40;;;3.08;;
49051;SDS011;34866;48.670;18.260;2023-02-20T08:54:22;6.90;;;3.97;;
49051;SDS011;34866;48.670;18.260;2023-02-20T08:56:47;9.38;;;4.30;;
49051;SDS011;34866;48.670;18.260;2023-02-20T08:59:14;6.50;;;3.63;;
49051;SDS011;34866;48.670;18.260;2023-02-20T09:01:40;8.65;;;4.68;;
49051;SDS011;34866;48.670;18.260;2023-02-20T09:04:06;13.13;;;4.43;;
49051;SDS011;34866;48.670;18.260;2023-02-20T09:06:33;15.10;;;6.38;;
49051;SDS011;34866;48.670;18.260;2023-02-20T09:08:59;65.90;;;19.90;;
49051;SDS011;34866;48.670;18.260;2023-02-20T09:11:24;26.95;;;12.63;;
49051;SDS011;34866;48.670;18.260;2023-02-20T09:13:50;32.92;;;10.57;;
49051;SDS011;34866;48.670;18.260;2023-02-20T09:16:18;22.95;;;9.55;;
49051;SDS011;34866;48.670;18.260;2023-02-20T09:18:45;15.60;;;7.72;;
49051;SDS011;34866;48.670;18.260;2023-02-20T09:21:12;9.60;;;4.72;;
49051;SDS011;34866;48.670;18.260;2023-02-20T09:23:39;13.80;;;4.40;;
49051;SDS011;34866;48.670;18.260;2023-02-20T09:26:05;18.20;;;4.80;;
49051;SDS011;34866;48.670;18.260;2023-02-20T09:28:31;8.88;;;4.60;;
49051;SDS011;34866;48.670;18.260;2023-02-20T09:30:56;8.85;;;4.45;;
49051;SDS011;34866;48.670;18.260;2023-02-20T09:33:24;9.40;;;4.40;;
49051;SDS011;34866;48.670;18.260;2023-02-20T09:35:51;9.70;;;5.05;;
49051;SDS011;34866;48.670;18.260;2023-02-20T09:38:18;8.93;;;5.05;;
49051;SDS011;34866;48.670;18.260;2023-02-20T09:40:45;15.13;;;6.53;;
49051;SDS011;34866;48.670;18.260;2023-02-20T09:46:07;17.02;;;6.22;;
49051;SDS011;34866;48.670;18.260;2023-02-20T09:48:51;12.05;;;6.50;;
49051;SDS011;34866;48.670;18.260;2023-02-20T09:51:20;13.68;;;5.38;;
49051;SDS011;34866;48.670;18.260;2023-02-20T09:56:24;11.48;;;5.68;;
49051;SDS011;34866;48.670;18.260;2023-02-20T10:01:34;12.85;;;6.07;;
49051;SDS011;34866;48.670;18.260;2023-02-20T10:04:09;13.27;;;6.97;;
49051;SDS011;34866;48.670;18.260;2023-02-20T10:06:39;14.55;;;5.47;;
49051;SDS011;34866;48.670;18.260;2023-02-20T10:09:05;16.75;;;6.32;;
49051;SDS011;34866;48.670;18.260;2023-02-20T10:16:45;14.65;;;7.45;;
49051;SDS011;34866;48.670;18.260;2023-02-20T10:27:30;11.23;;;6.47;;
49051;SDS011;34866;48.670;18.260;2023-02-20T10:29:56;17.60;;;6.68;;
49051;SDS011;34866;48.670;18.260;2023-02-20T10:35:12;13.75;;;6.78;;
49051;SDS011;34866;48.670;18.260;2023-02-20T10:37:43;15.80;;;7.45;;
49051;SDS011;34866;48.670;18.260;2023-02-20T10:40:15;15.90;;;8.32;;
49051;SDS011;34866;48.670;18.260;2023-02-20T10:43:04;14.68;;;7.50;;
49051;SDS011;34866;48.670;18.260;2023-02-20T10:45:50;13.65;;;7.00;;
49051;SDS011;34866;48.670;18.260;2023-02-20T10:48:19;15.88;;;7.15;;
49051;SDS011;34866;48.670;18.260;2023-02-20T10:56:13;13.35;;;6.82;;
49051;SDS011;34866;48.670;18.260;2023-02-20T11:01:21;13.40;;;6.68;;
49051;SDS011;34866;48.670;18.260;2023-02-20T11:06:32;18.08;;;9.60;;
49051;SDS011;34866;48.670;18.260;2023-02-20T11:09:18;20.70;;;10.50;;
49051;SDS011;34866;48.670;18.260;2023-02-20T11:11:45;23.13;;;10.70;;
49051;SDS011;34866;48.670;18.260;2023-02-20T11:14:12;23.20;;;11.00;;
49051;SDS011;34866;48.670;18.260;2023-02-20T11:19:41;21.25;;;10.23;;
49051;SDS011;34866;48.670;18.260;2023-02-20T11:22:09;20.20;;;10.57;;
49051;SDS011;34866;48.670;18.260;2023-02-20T11:24:39;22.33;;;12.10;;
49051;SDS011;34866;48.670;18.260;2023-02-20T11:29:40;18.60;;;9.73;;
49051;SDS011;34866;48.670;18.260;2023-02-20T11:32:26;14.75;;;7.88;;
49051;SDS011;34866;48.670;18.260;2023-02-20T11:35:10;16.48;;;8.35;;
49051;SDS011;34866;48.670;18.260;2023-02-20T11:37:38;18.92;;;9.18;;
49051;SDS011;34866;48.670;18.260;2023-02-20T11:40:04;23.83;;;9.50;;
49051;SDS011;34866;48.670;18.260;2023-02-20T11:42:40;15.02;;;8.13;;
49051;SDS011;34866;48.670;18.260;2023-02-20T11:47:46;22.83;;;10.13;;
49051;SDS011;34866;48.670;18.260;2023-02-20T11:50:50;16.15;;;8.55;;
49051;SDS011;34866;48.670;18.260;2023-02-20T11:53:18;16.30;;;8.13;;
49051;SDS011;34866;48.670;18.260;2023-02-20T11:55:49;15.85;;;8.35;;
49051;SDS011;34866;48.670;18.260;2023-02-20T11:58:41;23.80;;;9.07;;
49051;SDS011;34866;48.670;18.260;2023-02-20T12:01:28;18.50;;;8.82;;
49051;SDS011;34866;48.670;18.260;2023-02-20T12:03:59;17.00;;;8.88;;
49051;SDS011;34866;48.670;18.260;2023-02-20T12:08:57;16.63;;;8.80;;
49051;SDS011;34866;48.670;18.260;2023-02-20T12:11:25;15.90;;;7.95;;
49051;SDS011;34866;48.670;18.260;2023-02-20T12:13:53;14.63;;;6.93;;
49051;SDS011;34866;48.670;18.260;2023-02-20T12:19:58;12.70;;;7.13;;
49051;SDS011;34866;48.670;18.260;2023-02-20T12:22:34;22.70;;;6.93;;
49051;SDS011;34866;48.670;18.260;2023-02-20T12:27:40;13.85;;;6.90;;
49051;SDS011;34866;48.670;18.260;2023-02-20T12:30:18;12.18;;;7.13;;
49051;SDS011;34866;48.670;18.260;2023-02-20T12:43:37;14.80;;;7.72;;
49051;SDS011;34866;48.670;18.260;2023-02-20T12:46:30;15.18;;;7.53;;
49051;SDS011;34866;48.670;18.260;2023-02-20T13:00:39;14.82;;;7.78;;
49051;SDS011;34866;48.670;18.260;2023-02-20T13:03:12;15.23;;;8.15;;
49051;SDS011;34866;48.670;18.260;2023-02-20T13:05:45;16.13;;;7.40;;
49051;SDS011;34866;48.670;18.260;2023-02-20T13:10:57;15.13;;;7.88;;
49051;SDS011;34866;48.670;18.260;2023-02-20T13:13:28;17.65;;;8.82;;
49051;SDS011;34866;48.670;18.260;2023-02-20T13:16:05;20.50;;;8.15;;
49051;SDS011;34866;48.670;18.260;2023-02-20T13:18:42;16.13;;;8.45;;
49051;SDS011;34866;48.670;18.260;2023-02-20T13:21:13;19.75;;;9.13;;
49051;SDS011;34866;48.670;18.260;2023-02-20T13:23:41;19.17;;;8.73;;
49051;SDS011;34866;48.670;18.260;2023-02-20T13:28:51;18.98;;;8.65;;
49051;SDS011;34866;48.670;18.260;2023-02-20T13:31:21;15.38;;;7.13;;
49051;SDS011;34866;48.670;18.260;2023-02-20T13:42:04;21.80;;;9.35;;
49051;SDS011;34866;48.670;18.260;2023-02-20T13:44:48;18.92;;;9.00;;
49051;SDS011;34866;48.670;18.260;2023-02-20T13:55:30;21.08;;;9.13;;
49051;SDS011;34866;48.670;18.260;2023-02-20T13:58:10;24.20;;;9.63;;
49051;SDS011;34866;48.670;18.260;2023-02-20T14:03:11;20.42;;;10.43;;
49051;SDS011;34866;48.670;18.260;2023-02-20T14:05:43;20.98;;;9.77;;
49051;SDS011;34866;48.670;18.260;2023-02-20T14:08:16;23.67;;;9.13;;
49051;SDS011;34866;48.670;18.260;2023-02-20T14:10:42;19.38;;;8.45;;
49051;SDS011;34866;48.670;18.260;2023-02-20T14:13:18;19.27;;;9.90;;
49051;SDS011;34866;48.670;18.260;2023-02-20T14:15:50;17.27;;;9.32;;
49051;SDS011;34866;48.670;18.260;2023-02-20T14:18:19;17.17;;;9.02;;
49051;SDS011;34866;48.670;18.260;2023-02-20T14:20:46;21.75;;;9.40;;
49051;SDS011;34866;48.670;18.260;2023-02-20T14:23:26;17.90;;;9.07;;
49051;SDS011;34866;48.670;18.260;2023-02-20T14:25:56;21.85;;;9.18;;
49051;SDS011;34866;48.670;18.260;2023-02-20T14:28:30;20.80;;;9.35;;
49051;SDS011;34866;48.670;18.260;2023-02-20T14:39:07;18.52;;;9.68;;
49051;SDS011;34866;48.670;18.260;2023-02-20T14:41:54;17.52;;;9.25;;
49051;SDS011;34866;48.670;18.260;2023-02-20T14:44:25;20.20;;;9.52;;
49051;SDS011;34866;48.670;18.260;2023-02-20T14:47:34;26.95;;;10.75;;
49051;SDS011;34866;48.670;18.260;2023-02-20T14:49:43;17.63;;;9.48;;
49051;SDS011;34866;48.670;18.260;2023-02-20T14:54:35;24.08;;;10.98;;
49051;SDS011;34866;48.670;18.260;2023-02-20T14:57:02;24.70;;;11.15;;
49051;SDS011;34866;48.670;18.260;2023-02-20T14:59:33;24.48;;;9.15;;
49051;SDS011;34866;48.670;18.260;2023-02-20T15:02:03;23.67;;;9.68;;
49051;SDS011;34866;48.670;18.260;2023-02-20T15:04:53;21.55;;;10.15;;
49051;SDS011;34866;48.670;18.260;2023-02-20T15:07:24;25.88;;;10.77;;
49051;SDS011;34866;48.670;18.260;2023-02-20T15:09:53;24.45;;;10.38;;
49051;SDS011;34866;48.670;18.260;2023-02-20T15:12:25;24.20;;;9.98;;
49051;SDS011;34866;48.670;18.260;2023-02-20T15:15:05;22.55;;;9.18;;
49051;SDS011;34866;48.670;18.260;2023-02-20T15:17:34;18.70;;;9.25;;
49051;SDS011;34866;48.670;18.260;2023-02-20T15:23:06;22.33;;;10.43;;
49051;SDS011;34866;48.670;18.260;2023-02-20T15:33:37;16.90;;;9.30;;
49051;SDS011;34866;48.670;18.260;2023-02-20T15:36:05;17.73;;;8.90;;
49051;SDS011;34866;48.670;18.260;2023-02-20T15:38:36;24.65;;;10.02;;
49051;SDS011;34866;48.670;18.260;2023-02-20T15:41:02;20.60;;;10.18;;
49051;SDS011;34866;48.670;18.260;2023-02-20T15:43:29;18.83;;;10.23;;
49051;SDS011;34866;48.670;18.260;2023-02-20T15:45:55;19.70;;;9.48;;
49051;SDS011;34866;48.670;18.260;2023-02-20T15:48:21;20.13;;;9.30;;
49051;SDS011;34866;48.670;18.260;2023-02-20T15:50:47;20.42;;;10.68;;
49051;SDS011;34866;48.670;18.260;2023-02-20T15:53:20;25.45;;;12.07;;
49051;SDS011;34866;48.670;18.260;2023-02-20T15:55:49;22.13;;;10.90;;
49051;SDS011;34866;48.670;18.260;2023-02-20T15:58:20;19.63;;;9.57;;
49051;SDS011;34866;48.670;18.260;2023-02-20T16:00:51;22.25;;;9.20;;
49051;SDS011;34866;48.670;18.260;2023-02-20T16:03:19;20.75;;;10.95;;
49051;SDS011;34866;48.670;18.260;2023-02-20T16:05:49;28.90;;;11.43;;
49051;SDS011;34866;48.670;18.260;2023-02-20T16:08:15;24.23;;;10.95;;
49051;SDS011;34866;48.670;18.260;2023-02-20T16:10:41;20.17;;;9.93;;
49051;SDS011;34866;48.670;18.260;2023-02-20T16:13:07;49.65;;;14.82;;
49051;SDS011;34866;48.670;18.260;2023-02-20T16:15:49;32.45;;;12.93;;
49051;SDS011;34866;48.670;18.260;2023-02-20T16:18:14;25.25;;;10.38;;
49051;SDS011;34866;48.670;18.260;2023-02-20T16:20:40;26.55;;;13.68;;
49051;SDS011;34866;48.670;18.260;2023-02-20T16:23:06;31.25;;;12.13;;
49051;SDS011;34866;48.670;18.260;2023-02-20T16:25:32;31.58;;;13.02;;
49051;SDS011;34866;48.670;18.260;2023-02-20T16:27:58;24.15;;;12.52;;
49051;SDS011;34866;48.670;18.260;2023-02-20T16:30:26;28.17;;;12.70;;
49051;SDS011;34866;48.670;18.260;2023-02-20T16:33:02;25.75;;;12.35;;
49051;SDS011;34866;48.670;18.260;2023-02-20T16:35:37;34.65;;;13.57;;
49051;SDS011;34866;48.670;18.260;2023-02-20T16:38:04;31.05;;;13.43;;
49051;SDS011;34866;48.670;18.260;2023-02-20T16:40:29;23.90;;;11.88;;
49051;SDS011;34866;48.670;18.260;2023-02-20T16:42:55;33.05;;;14.70;;
49051;SDS011;34866;48.670;18.260;2023-02-20T16:45:20;34.58;;;15.70;;
49051;SDS011;34866;48.670;18.260;2023-02-20T16:47:47;37.20;;;14.27;;
49051;SDS011;34866;48.670;18.260;2023-02-20T16:50:18;26.77;;;13.50;;
49051;SDS011;34866;48.670;18.260;2023-02-20T16:52:47;25.20;;;13.90;;
49051;SDS011;34866;48.670;18.260;2023-02-20T16:55:22;28.42;;;13.50;;
49051;SDS011;34866;48.670;18.260;2023-02-20T16:57:56;33.15;;;15.32;;
49051;SDS011;34866;48.670;18.260;2023-02-20T17:00:33;29.52;;;14.65;;
49051;SDS011;34866;48.670;18.260;2023-02-20T17:03:00;27.55;;;14.63;;
49051;SDS011;34866;48.670;18.260;2023-02-20T17:05:28;28.50;;;13.30;;
49051;SDS011;34866;48.670;18.260;2023-02-20T17:07:56;24.40;;;12.05;;
49051;SDS011;34866;48.670;18.260;2023-02-20T17:10:23;30.73;;;11.95;;
49051;SDS011;34866;48.670;18.260;2023-02-20T17:12:50;29.02;;;15.32;;
49051;SDS011;34866;48.670;18.260;2023-02-20T17:15:17;27.27;;;11.70;;
49051;SDS011;34866;48.670;18.260;2023-02-20T17:17:43;28.85;;;12.85;;
49051;SDS011;34866;48.670;18.260;2023-02-20T17:20:16;29.20;;;13.70;;
49051;SDS011;34866;48.670;18.260;2023-02-20T17:22:44;22.83;;;13.10;;
49051;SDS011;34866;48.670;18.260;2023-02-20T17:25:13;33.88;;;12.57;;
49051;SDS011;34866;48.670;18.260;2023-02-20T17:27:40;28.42;;;14.88;;